sensor_id;sensor_type;location;lat;lon;timestamp;P1;durP1;ratioP1;P2;durP2;ratioP2
12171;SDS011;6149;52.418;13.668;2023-01-28T00:02:03;5.00;;;3.10;;
12171;SDS011;6149;52.418;13.668;2023-01-28T00:04:32;5.40;;;3.53;;
12171;SDS011;6149;52.418;13.668;2023-01-28T00:07:00;6.63;;;3.33;;
12171;SDS011;6149;52.418;13.668;2023-01-28T00:09:30;6.10;;;3.27;;
12171;SDS011;6149;52.418;13.668;2023-01-28T00:11:57;5.57;;;3.10;;
12171;SDS011;6149;52.418;13.668;2023-01-28T00:14:27;9.53;;;4.50;;
12171;SDS011;6149;52.418;13.668;2023-01-28T00:16:54;5.93;;;3.63;;
12171;SDS011;6149;52.418;13.668;2023-01-28T00:19:22;8.37;;;3.80;;
12171;SDS011;6149;52.418;13.668;2023-01-28T00:21:48;6.87;;;3.53;;
12171;SDS011;6149;52.418;13.668;2023-01-28T00:24:15;6.63;;;3.40;;
12171;SDS011;6149;52.418;13.668;2023-01-28T00:26:43;6.70;;;3.33;;
12171;SDS011;6149;52.418;13.668;2023-01-28T00:29:10;6.53;;;3.50;;
12171;SDS011;6149;52.418;13.668;2023-01-28T00:31:39;6.83;;;3.07;;
12171;SDS011;6149;52.418;13.668;2023-01-28T00:34:07;6.97;;;2.90;;
12171;SDS011;6149;52.418;13.668;2023-01-28T00:36:34;6.63;;;3.33;;
12171;SDS011;6149;52.418;13.668;2023-01-28T00:39:04;4.67;;;3.00;;
12171;SDS011;6149;52.418;13.668;2023-01-28T00:41:32;6.07;;;3.27;;
12171;SDS011;6149;52.418;13.668;2023-01-28T00:44:01;9.27;;;3.43;;
12171;SDS011;6149;52.418;13.668;2023-01-28T00:46:30;7.53;;;4.00;;
12171;SDS011;6149;52.418;13.668;2023-01-28T00:48:58;7.33;;;3.70;;
12171;SDS011;6149;52.418;13.668;2023-01-28T00:51:25;5.50;;;2.90;;
12171;SDS011;6149;52.418;13.668;2023-01-28T00:53:52;6.33;;;3.30;;
12171;SDS011;6149;52.418;13.668;2023-01-28T00:56:20;7.97;;;3.33;;
12171;SDS011;6149;52.418;13.668;2023-01-28T00:58:46;5.97;;;3.70;;
12171;SDS011;6149;52.418;13.668;2023-01-28T01:01:14;8.43;;;3.43;;
12171;SDS011;6149;52.418;13.668;2023-01-28T01:03:45;6.10;;;3.43;;
12171;SDS011;6149;52.418;13.668;2023-01-28T01:06:20;6.80;;;3.53;;
12171;SDS011;6149;52.418;13.668;2023-01-28T01:08:50;4.90;;;2.93;;
12171;SDS011;6149;52.418;13.668;2023-01-28T01:11:17;5.30;;;3.23;;
12171;SDS011;6149;52.418;13.668;2023-01-28T01:13:44;7.73;;;3.40;;
12171;SDS011;6149;52.418;13.668;2023-01-28T01:16:17;6.07;;;3.30;;
12171;SDS011;6149;52.418;13.668;2023-01-28T01:18:45;4.67;;;2.77;;
12171;SDS011;6149;52.418;13.668;2023-01-28T01:21:12;6.10;;;3.70;;
12171;SDS011;6149;52.418;13.668;2023-01-28T01:23:43;6.13;;;3.33;;
12171;SDS011;6149;52.418;13.668;2023-01-28T01:26:11;4.53;;;3.30;;
12171;SDS011;6149;52.418;13.668;2023-01-28T01:28:40;5.90;;;3.10;;
12171;SDS011;6149;52.418;13.668;2023-01-28T01:31:09;6.10;;;2.90;;
12171;SDS011;6149;52.418;13.668;2023-01-28T01:33:39;6.53;;;3.33;;
12171;SDS011;6149;52.418;13.668;2023-01-28T01:36:09;6.43;;;3.10;;
12171;SDS011;6149;52.418;13.668;2023-01-28T01:38:38;6.47;;;3.20;;
12171;SDS011;6149;52.418;13.668;2023-01-28T01:41:12;5.03;;;3.00;;
12171;SDS011;6149;52.418;13.668;2023-01-28T01:43:51;7.53;;;3.30;;
12171;SDS011;6149;52.418;13.668;2023-01-28T01:46:22;7.50;;;2.73;;
12171;SDS011;6149;52.418;13.668;2023-01-28T01:49:02;8.27;;;3.00;;
12171;SDS011;6149;52.418;13.668;2023-01-28T01:51:40;5.90;;;3.17;;
12171;SDS011;6149;52.418;13.668;2023-01-28T01:54:12;5.40;;;3.00;;
12171;SDS011;6149;52.418;13.668;2023-01-28T01:56:42;6.70;;;3.33;;
12171;SDS011;6149;52.418;13.668;2023-01-28T01:59:13;5.80;;;3.40;;
12171;SDS011;6149;52.418;13.668;2023-01-28T02:01:46;4.53;;;3.10;;
12171;SDS011;6149;52.418;13.668;2023-01-28T02:04:16;5.27;;;3.03;;
12171;SDS011;6149;52.418;13.668;2023-01-28T02:06:48;4.37;;;2.87;;
12171;SDS011;6149;52.418;13.668;2023-01-28T02:09:21;7.90;;;3.70;;
12171;SDS011;6149;52.418;13.668;2023-01-28T02:11:52;7.53;;;3.60;;
12171;SDS011;6149;52.418;13.668;2023-01-28T02:14:26;7.43;;;3.17;;
12171;SDS011;6149;52.418;13.668;2023-01-28T02:17:02;6.90;;;3.50;;
12171;SDS011;6149;52.418;13.668;2023-01-28T02:19:34;5.60;;;3.37;;
12171;SDS011;6149;52.418;13.668;2023-01-28T02:22:10;8.17;;;3.67;;
12171;SDS011;6149;52.418;13.668;2023-01-28T02:25:09;9.23;;;3.70;;
12171;SDS011;6149;52.418;13.668;2023-01-28T02:28:17;5.33;;;3.33;;
12171;SDS011;6149;52.418;13.668;2023-01-28T02:31:00;6.70;;;3.30;;
12171;SDS011;6149;52.418;13.668;2023-01-28T02:33:36;9.17;;;4.10;;
12171;SDS011;6149;52.418;13.668;2023-01-28T02:36:12;5.83;;;3.73;;
12171;SDS011;6149;52.418;13.668;2023-01-28T02:38:49;7.93;;;3.50;;
12171;SDS011;6149;52.418;13.668;2023-01-28T02:41:22;8.57;;;3.97;;
12171;SDS011;6149;52.418;13.668;2023-01-28T02:44:01;5.20;;;3.47;;
12171;SDS011;6149;52.418;13.668;2023-01-28T02:46:33;7.10;;;3.60;;
12171;SDS011;6149;52.418;13.668;2023-01-28T02:49:21;7.20;;;3.97;;
12171;SDS011;6149;52.418;13.668;2023-01-28T02:52:13;7.03;;;3.53;;
12171;SDS011;6149;52.418;13.668;2023-01-28T02:55:15;5.20;;;3.30;;
12171;SDS011;6149;52.418;13.668;2023-01-28T02:57:53;5.03;;;3.70;;
12171;SDS011;6149;52.418;13.668;2023-01-28T03:00:36;5.47;;;3.30;;
12171;SDS011;6149;52.418;13.668;2023-01-28T03:03:14;5.93;;;3.63;;
12171;SDS011;6149;52.418;13.668;2023-01-28T03:05:49;5.33;;;3.20;;
12171;SDS011;6149;52.418;13.668;2023-01-28T03:08:33;8.10;;;4.03;;
12171;SDS011;6149;52.418;13.668;2023-01-28T03:11:24;8.17;;;3.60;;
12171;SDS011;6149;52.418;13.668;2023-01-28T03:14:14;4.90;;;3.47;;
12171;SDS011;6149;52.418;13.668;2023-01-28T03:17:07;7.30;;;3.70;;
12171;SDS011;6149;52.418;13.668;2023-01-28T03:20:01;5.07;;;2.93;;
12171;SDS011;6149;52.418;13.668;2023-01-28T03:22:48;7.10;;;3.33;;
12171;SDS011;6149;52.418;13.668;2023-01-28T03:25:39;6.93;;;3.67;;
12171;SDS011;6149;52.418;13.668;2023-01-28T03:28:30;8.33;;;3.77;;
12171;SDS011;6149;52.418;13.668;2023-01-28T03:31:18;5.67;;;3.30;;
12171;SDS011;6149;52.418;13.668;2023-01-28T03:34:09;5.93;;;3.37;;
12171;SDS011;6149;52.418;13.668;2023-01-28T03:36:56;5.63;;;3.30;;
12171;SDS011;6149;52.418;13.668;2023-01-28T03:39:26;9.00;;;3.60;;
12171;SDS011;6149;52.418;13.668;2023-01-28T03:42:01;4.87;;;3.40;;
12171;SDS011;6149;52.418;13.668;2023-01-28T03:44:30;7.77;;;3.60;;
12171;SDS011;6149;52.418;13.668;2023-01-28T03:47:19;5.87;;;2.97;;
12171;SDS011;6149;52.418;13.668;2023-01-28T03:49:51;6.50;;;3.47;;
12171;SDS011;6149;52.418;13.668;2023-01-28T03:52:22;8.80;;;3.60;;
12171;SDS011;6149;52.418;13.668;2023-01-28T03:54:52;6.63;;;3.53;;
12171;SDS011;6149;52.418;13.668;2023-01-28T03:57:20;5.60;;;3.17;;
12171;SDS011;6149;52.418;13.668;2023-01-28T03:59:50;6.33;;;3.40;;
12171;SDS011;6149;52.418;13.668;2023-01-28T04:02:18;7.03;;;3.80;;
12171;SDS011;6149;52.418;13.668;2023-01-28T04:04:48;5.80;;;3.80;;
12171;SDS011;6149;52.418;13.668;2023-01-28T04:07:21;4.67;;;3.30;;
12171;SDS011;6149;52.418;13.668;2023-01-28T04:09:49;8.83;;;3.63;;
12171;SDS011;6149;52.418;13.668;2023-01-28T04:12:19;5.67;;;3.60;;
12171;SDS011;6149;52.418;13.668;2023-01-28T04:14:49;7.07;;;3.50;;
12171;SDS011;6149;52.418;13.668;2023-01-28T04:17:16;6.30;;;3.47;;
12171;SDS011;6149;52.418;13.668;2023-01-28T04:19:43;4.83;;;3.63;;
12171;SDS011;6149;52.418;13.668;2023-01-28T04:22:13;6.50;;;3.50;;
12171;SDS011;6149;52.418;13.668;2023-01-28T04:24:39;6.10;;;3.60;;
12171;SDS011;6149;52.418;13.668;2023-01-28T04:27:07;5.33;;;3.73;;
12171;SDS011;6149;52.418;13.668;2023-01-28T04:29:34;5.03;;;3.70;;
12171;SDS011;6149;52.418;13.668;2023-01-28T04:32:04;5.77;;;3.23;;
12171;SDS011;6149;52.418;13.668;2023-01-28T04:34:33;5.73;;;3.60;;
12171;SDS011;6149;52.418;13.668;2023-01-28T04:37:00;4.50;;;3.13;;
12171;SDS011;6149;52.418;13.668;2023-01-28T04:39:31;4.77;;;3.00;;
12171;SDS011;6149;52.418;13.668;2023-01-28T04:42:00;4.97;;;3.00;;
12171;SDS011;6149;52.418;13.668;2023-01-28T04:44:26;7.57;;;3.17;;
12171;SDS011;6149;52.418;13.668;2023-01-28T04:46:53;4.43;;;2.80;;
12171;SDS011;6149;52.418;13.668;2023-01-28T04:49:21;3.53;;;2.43;;
12171;SDS011;6149;52.418;13.668;2023-01-28T04:51:48;4.27;;;2.80;;
12171;SDS011;6149;52.418;13.668;2023-01-28T04:54:15;4.07;;;2.40;;
12171;SDS011;6149;52.418;13.668;2023-01-28T04:56:46;5.20;;;2.70;;
12171;SDS011;6149;52.418;13.668;2023-01-28T04:59:14;3.87;;;2.60;;
12171;SDS011;6149;52.418;13.668;2023-01-28T05:01:42;4.13;;;2.63;;
12171;SDS011;6149;52.418;13.668;2023-01-28T05:04:10;3.93;;;2.70;;
12171;SDS011;6149;52.418;13.668;2023-01-28T05:06:36;4.23;;;2.70;;
12171;SDS011;6149;52.418;13.668;2023-01-28T05:09:03;3.97;;;2.60;;
12171;SDS011;6149;52.418;13.668;2023-01-28T05:11:31;4.93;;;2.57;;
12171;SDS011;6149;52.418;13.668;2023-01-28T05:14:00;4.83;;;2.47;;
12171;SDS011;6149;52.418;13.668;2023-01-28T05:16:27;4.63;;;2.37;;
12171;SDS011;6149;52.418;13.668;2023-01-28T05:18:59;3.50;;;2.53;;
12171;SDS011;6149;52.418;13.668;2023-01-28T05:21:31;4.10;;;2.33;;
12171;SDS011;6149;52.418;13.668;2023-01-28T05:23:59;5.37;;;2.70;;
12171;SDS011;6149;52.418;13.668;2023-01-28T05:26:27;3.80;;;2.60;;
12171;SDS011;6149;52.418;13.668;2023-01-28T05:28:57;4.17;;;2.53;;
12171;SDS011;6149;52.418;13.668;2023-01-28T05:31:27;3.23;;;2.27;;
12171;SDS011;6149;52.418;13.668;2023-01-28T05:33:55;3.47;;;2.13;;
12171;SDS011;6149;52.418;13.668;2023-01-28T05:36:23;5.10;;;2.87;;
12171;SDS011;6149;52.418;13.668;2023-01-28T05:38:49;4.40;;;2.40;;
12171;SDS011;6149;52.418;13.668;2023-01-28T05:41:16;3.43;;;2.63;;
12171;SDS011;6149;52.418;13.668;2023-01-28T05:43:42;3.77;;;3.00;;
12171;SDS011;6149;52.418;13.668;2023-01-28T05:46:12;4.40;;;2.63;;
12171;SDS011;6149;52.418;13.668;2023-01-28T05:48:42;3.10;;;2.47;;
12171;SDS011;6149;52.418;13.668;2023-01-28T05:51:10;3.90;;;2.87;;
12171;SDS011;6149;52.418;13.668;2023-01-28T05:53:36;5.23;;;3.17;;
12171;SDS011;6149;52.418;13.668;2023-01-28T05:56:04;3.60;;;2.70;;
12171;SDS011;6149;52.418;13.668;2023-01-28T05:58:33;3.97;;;2.93;;
12171;SDS011;6149;52.418;13.668;2023-01-28T06:01:01;4.60;;;2.70;;
12171;SDS011;6149;52.418;13.668;2023-01-28T06:03:31;5.67;;;3.40;;
12171;SDS011;6149;52.418;13.668;2023-01-28T06:06:11;3.77;;;3.10;;
12171;SDS011;6149;52.418;13.668;2023-01-28T06:08:39;5.07;;;3.10;;
12171;SDS011;6149;52.418;13.668;2023-01-28T06:11:07;4.17;;;2.77;;
12171;SDS011;6149;52.418;13.668;2023-01-28T06:13:33;5.50;;;3.10;;
12171;SDS011;6149;52.418;13.668;2023-01-28T06:16:02;5.70;;;2.97;;
12171;SDS011;6149;52.418;13.668;2023-01-28T06:18:30;5.30;;;3.37;;
12171;SDS011;6149;52.418;13.668;2023-01-28T06:20:57;3.77;;;3.10;;
12171;SDS011;6149;52.418;13.668;2023-01-28T06:23:30;5.43;;;3.40;;
12171;SDS011;6149;52.418;13.668;2023-01-28T06:25:57;7.37;;;3.73;;
12171;SDS011;6149;52.418;13.668;2023-01-28T06:28:26;5.47;;;3.73;;
12171;SDS011;6149;52.418;13.668;2023-01-28T06:30:56;4.70;;;3.60;;
12171;SDS011;6149;52.418;13.668;2023-01-28T06:33:23;4.90;;;3.53;;
12171;SDS011;6149;52.418;13.668;2023-01-28T06:35:54;6.83;;;3.60;;
12171;SDS011;6149;52.418;13.668;2023-01-28T06:38:25;4.23;;;3.70;;
12171;SDS011;6149;52.418;13.668;2023-01-28T06:40:52;4.63;;;3.60;;
12171;SDS011;6149;52.418;13.668;2023-01-28T06:43:24;7.07;;;4.37;;
12171;SDS011;6149;52.418;13.668;2023-01-28T06:45:53;5.10;;;4.03;;
12171;SDS011;6149;52.418;13.668;2023-01-28T06:48:21;4.27;;;3.63;;
12171;SDS011;6149;52.418;13.668;2023-01-28T06:50:48;6.07;;;4.20;;
12171;SDS011;6149;52.418;13.668;2023-01-28T06:53:17;6.37;;;4.30;;
12171;SDS011;6149;52.418;13.668;2023-01-28T06:55:47;5.90;;;4.47;;
12171;SDS011;6149;52.418;13.668;2023-01-28T06:58:14;5.23;;;4.23;;
12171;SDS011;6149;52.418;13.668;2023-01-28T07:00:43;5.97;;;4.27;;
12171;SDS011;6149;52.418;13.668;2023-01-28T07:03:11;6.87;;;4.23;;
12171;SDS011;6149;52.418;13.668;2023-01-28T07:05:39;7.13;;;4.30;;
12171;SDS011;6149;52.418;13.668;2023-01-28T07:08:07;7.53;;;4.10;;
12171;SDS011;6149;52.418;13.668;2023-01-28T07:10:35;6.03;;;4.57;;
12171;SDS011;6149;52.418;13.668;2023-01-28T07:13:08;7.53;;;5.43;;
12171;SDS011;6149;52.418;13.668;2023-01-28T07:15:36;8.00;;;5.90;;
12171;SDS011;6149;52.418;13.668;2023-01-28T07:18:04;8.00;;;5.23;;
12171;SDS011;6149;52.418;13.668;2023-01-28T07:20:32;6.40;;;4.57;;
12171;SDS011;6149;52.418;13.668;2023-01-28T07:22:59;6.83;;;4.70;;
12171;SDS011;6149;52.418;13.668;2023-01-28T07:25:29;5.67;;;4.50;;
12171;SDS011;6149;52.418;13.668;2023-01-28T07:27:57;5.90;;;5.17;;
12171;SDS011;6149;52.418;13.668;2023-01-28T07:30:38;8.10;;;4.67;;
12171;SDS011;6149;52.418;13.668;2023-01-28T07:33:05;6.60;;;4.30;;
12171;SDS011;6149;52.418;13.668;2023-01-28T07:35:33;7.47;;;5.00;;
12171;SDS011;6149;52.418;13.668;2023-01-28T07:38:00;5.70;;;4.23;;
12171;SDS011;6149;52.418;13.668;2023-01-28T07:40:27;6.20;;;5.13;;
12171;SDS011;6149;52.418;13.668;2023-01-28T07:42:57;7.63;;;5.40;;
12171;SDS011;6149;52.418;13.668;2023-01-28T07:45:27;7.47;;;4.70;;
12171;SDS011;6149;52.418;13.668;2023-01-28T07:47:58;7.93;;;5.60;;
12171;SDS011;6149;52.418;13.668;2023-01-28T07:50:29;9.37;;;6.40;;
12171;SDS011;6149;52.418;13.668;2023-01-28T07:53:01;8.27;;;5.93;;
12171;SDS011;6149;52.418;13.668;2023-01-28T07:55:30;12.07;;;9.20;;
12171;SDS011;6149;52.418;13.668;2023-01-28T07:58:00;9.90;;;7.10;;
12171;SDS011;6149;52.418;13.668;2023-01-28T08:00:32;9.70;;;7.47;;
12171;SDS011;6149;52.418;13.668;2023-01-28T08:03:09;8.90;;;7.00;;
12171;SDS011;6149;52.418;13.668;2023-01-28T08:05:42;12.40;;;8.37;;
12171;SDS011;6149;52.418;13.668;2023-01-28T08:08:13;10.40;;;7.83;;
12171;SDS011;6149;52.418;13.668;2023-01-28T08:10:42;10.97;;;7.83;;
12171;SDS011;6149;52.418;13.668;2023-01-28T08:13:11;9.33;;;6.73;;
12171;SDS011;6149;52.418;13.668;2023-01-28T08:15:40;11.20;;;6.80;;
12171;SDS011;6149;52.418;13.668;2023-01-28T08:18:13;9.77;;;6.60;;
12171;SDS011;6149;52.418;13.668;2023-01-28T08:20:43;10.93;;;7.30;;
12171;SDS011;6149;52.418;13.668;2023-01-28T08:23:13;10.37;;;7.10;;
12171;SDS011;6149;52.418;13.668;2023-01-28T08:25:44;11.67;;;7.57;;
12171;SDS011;6149;52.418;13.668;2023-01-28T08:28:15;10.10;;;7.30;;
12171;SDS011;6149;52.418;13.668;2023-01-28T08:30:42;9.67;;;7.03;;
12171;SDS011;6149;52.418;13.668;2023-01-28T08:33:13;10.47;;;6.87;;
12171;SDS011;6149;52.418;13.668;2023-01-28T08:35:42;8.83;;;6.70;;
12171;SDS011;6149;52.418;13.668;2023-01-28T08:38:10;13.47;;;7.17;;
12171;SDS011;6149;52.418;13.668;2023-01-28T08:40:39;12.27;;;7.80;;
12171;SDS011;6149;52.418;13.668;2023-01-28T08:43:07;13.17;;;8.07;;
12171;SDS011;6149;52.418;13.668;2023-01-28T08:45:36;10.77;;;7.70;;
12171;SDS011;6149;52.418;13.668;2023-01-28T08:48:08;11.80;;;8.63;;
12171;SDS011;6149;52.418;13.668;2023-01-28T08:50:42;13.13;;;8.07;;
12171;SDS011;6149;52.418;13.668;2023-01-28T08:53:12;13.90;;;8.57;;
12171;SDS011;6149;52.418;13.668;2023-01-28T08:55:42;13.87;;;9.07;;
12171;SDS011;6149;52.418;13.668;2023-01-28T08:58:13;12.17;;;8.20;;
12171;SDS011;6149;52.418;13.668;2023-01-28T09:00:44;10.63;;;8.00;;
12171;SDS011;6149;52.418;13.668;2023-01-28T09:03:14;12.27;;;8.20;;
12171;SDS011;6149;52.418;13.668;2023-01-28T09:05:45;10.87;;;7.40;;
12171;SDS011;6149;52.418;13.668;2023-01-28T09:08:13;12.03;;;7.67;;
12171;SDS011;6149;52.418;13.668;2023-01-28T09:10:42;13.70;;;7.77;;
12171;SDS011;6149;52.418;13.668;2023-01-28T09:13:12;11.57;;;8.03;;
12171;SDS011;6149;52.418;13.668;2023-01-28T09:15:40;10.97;;;7.40;;
12171;SDS011;6149;52.418;13.668;2023-01-28T09:18:09;14.07;;;8.10;;
12171;SDS011;6149;52.418;13.668;2023-01-28T09:20:40;12.13;;;7.13;;
12171;SDS011;6149;52.418;13.668;2023-01-28T09:23:07;11.27;;;7.50;;
12171;SDS011;6149;52.418;13.668;2023-01-28T09:25:39;11.67;;;7.13;;
12171;SDS011;6149;52.418;13.668;2023-01-28T09:28:07;12.77;;;7.47;;
12171;SDS011;6149;52.418;13.668;2023-01-28T09:30:40;15.07;;;8.00;;
12171;SDS011;6149;52.418;13.668;2023-01-28T09:33:07;13.03;;;8.37;;
12171;SDS011;6149;52.418;13.668;2023-01-28T09:35:34;13.80;;;7.93;;
12171;SDS011;6149;52.418;13.668;2023-01-28T09:38:15;15.10;;;8.63;;
12171;SDS011;6149;52.418;13.668;2023-01-28T09:40:42;12.40;;;8.10;;
12171;SDS011;6149;52.418;13.668;2023-01-28T09:43:19;10.60;;;7.10;;
12171;SDS011;6149;52.418;13.668;2023-01-28T09:46:09;11.37;;;7.23;;
12171;SDS011;6149;52.418;13.668;2023-01-28T09:48:40;11.20;;;7.40;;
12171;SDS011;6149;52.418;13.668;2023-01-28T09:51:17;10.43;;;6.30;;
12171;SDS011;6149;52.418;13.668;2023-01-28T09:53:59;11.50;;;7.30;;
12171;SDS011;6149;52.418;13.668;2023-01-28T09:56:38;12.10;;;7.27;;
12171;SDS011;6149;52.418;13.668;2023-01-28T09:59:15;13.43;;;7.67;;
12171;SDS011;6149;52.418;13.668;2023-01-28T10:01:46;15.43;;;8.20;;
12171;SDS011;6149;52.418;13.668;2023-01-28T10:04:24;13.63;;;8.90;;
12171;SDS011;6149;52.418;13.668;2023-01-28T10:07:10;14.53;;;8.80;;
12171;SDS011;6149;52.418;13.668;2023-01-28T10:09:54;12.70;;;8.43;;
12171;SDS011;6149;52.418;13.668;2023-01-28T10:12:32;13.17;;;7.43;;
12171;SDS011;6149;52.418;13.668;2023-01-28T10:15:25;11.57;;;7.30;;
12171;SDS011;6149;52.418;13.668;2023-01-28T10:18:29;14.10;;;8.17;;
12171;SDS011;6149;52.418;13.668;2023-01-28T10:21:11;12.97;;;8.20;;
12171;SDS011;6149;52.418;13.668;2023-01-28T10:23:45;16.00;;;9.43;;
12171;SDS011;6149;52.418;13.668;2023-01-28T10:26:24;14.60;;;8.83;;
12171;SDS011;6149;52.418;13.668;2023-01-28T10:28:57;17.10;;;9.97;;
12171;SDS011;6149;52.418;13.668;2023-01-28T10:31:38;14.70;;;9.87;;
12171;SDS011;6149;52.418;13.668;2023-01-28T10:34:17;19.87;;;10.70;;
12171;SDS011;6149;52.418;13.668;2023-01-28T10:36:46;17.90;;;11.27;;
12171;SDS011;6149;52.418;13.668;2023-01-28T10:39:14;16.43;;;11.17;;
12171;SDS011;6149;52.418;13.668;2023-01-28T10:41:49;18.30;;;10.13;;
12171;SDS011;6149;52.418;13.668;2023-01-28T10:44:20;16.53;;;10.87;;
12171;SDS011;6149;52.418;13.668;2023-01-28T10:46:58;17.30;;;10.20;;
12171;SDS011;6149;52.418;13.668;2023-01-28T10:49:30;15.57;;;9.67;;
12171;SDS011;6149;52.418;13.668;2023-01-28T10:52:11;19.27;;;10.17;;
12171;SDS011;6149;52.418;13.668;2023-01-28T10:54:40;13.80;;;9.17;;
12171;SDS011;6149;52.418;13.668;2023-01-28T10:57:09;13.07;;;8.33;;
12171;SDS011;6149;52.418;13.668;2023-01-28T10:59:40;14.70;;;8.90;;
12171;SDS011;6149;52.418;13.668;2023-01-28T11:05:00;11.13;;;6.53;;
12171;SDS011;6149;52.418;13.668;2023-01-28T11:07:40;9.80;;;5.80;;
12171;SDS011;6149;52.418;13.668;2023-01-28T11:10:25;9.57;;;6.07;;
12171;SDS011;6149;52.418;13.668;2023-01-28T11:13:03;9.23;;;7.20;;
12171;SDS011;6149;52.418;13.668;2023-01-28T11:15:39;8.70;;;6.57;;
12171;SDS011;6149;52.418;13.668;2023-01-28T11:18:14;8.47;;;6.27;;
12171;SDS011;6149;52.418;13.668;2023-01-28T11:20:50;8.73;;;6.00;;
12171;SDS011;6149;52.418;13.668;2023-01-28T11:23:22;8.63;;;5.70;;
12171;SDS011;6149;52.418;13.668;2023-01-28T11:25:58;7.63;;;5.53;;
12171;SDS011;6149;52.418;13.668;2023-01-28T11:28:31;6.27;;;4.00;;
12171;SDS011;6149;52.418;13.668;2023-01-28T11:31:00;4.17;;;2.40;;
12171;SDS011;6149;52.418;13.668;2023-01-28T11:33:31;2.60;;;1.90;;
12171;SDS011;6149;52.418;13.668;2023-01-28T11:36:06;3.70;;;2.13;;
12171;SDS011;6149;52.418;13.668;2023-01-28T11:38:47;3.10;;;1.90;;
12171;SDS011;6149;52.418;13.668;2023-01-28T11:41:18;1.43;;;1.23;;
12171;SDS011;6149;52.418;13.668;2023-01-28T11:43:55;2.57;;;1.30;;
12171;SDS011;6149;52.418;13.668;2023-01-28T11:46:34;1.90;;;1.20;;
12171;SDS011;6149;52.418;13.668;2023-01-28T11:49:29;1.70;;;1.20;;
12171;SDS011;6149;52.418;13.668;2023-01-28T11:52:16;2.93;;;1.63;;
12171;SDS011;6149;52.418;13.668;2023-01-28T11:54:56;1.20;;;1.00;;
12171;SDS011;6149;52.418;13.668;2023-01-28T11:57:51;1.40;;;1.10;;
12171;SDS011;6149;52.418;13.668;2023-01-28T12:00:29;1.70;;;0.80;;
12171;SDS011;6149;52.418;13.668;2023-01-28T12:06:20;2.97;;;1.00;;
12171;SDS011;6149;52.418;13.668;2023-01-28T12:08:59;4.17;;;0.80;;
12171;SDS011;6149;52.418;13.668;2023-01-28T12:11:42;2.47;;;1.00;;
12171;SDS011;6149;52.418;13.668;2023-01-28T12:14:48;0.97;;;0.60;;
12171;SDS011;6149;52.418;13.668;2023-01-28T12:18:04;1.73;;;0.60;;
12171;SDS011;6149;52.418;13.668;2023-01-28T12:20:45;1.20;;;0.50;;
12171;SDS011;6149;52.418;13.668;2023-01-28T12:23:31;1.73;;;1.07;;
12171;SDS011;6149;52.418;13.668;2023-01-28T12:26:15;2.60;;;1.00;;
12171;SDS011;6149;52.418;13.668;2023-01-28T12:28:56;1.73;;;0.80;;
12171;SDS011;6149;52.418;13.668;2023-01-28T12:38:04;2.43;;;0.87;;
12171;SDS011;6149;52.418;13.668;2023-01-28T12:43:36;1.43;;;0.70;;
12171;SDS011;6149;52.418;13.668;2023-01-28T12:46:17;0.63;;;0.50;;
12171;SDS011;6149;52.418;13.668;2023-01-28T12:49:02;1.63;;;0.80;;
12171;SDS011;6149;52.418;13.668;2023-01-28T12:51:37;1.47;;;0.50;;
12171;SDS011;6149;52.418;13.668;2023-01-28T12:54:17;0.70;;;0.60;;
12171;SDS011;6149;52.418;13.668;2023-01-28T12:56:52;1.70;;;0.60;;
12171;SDS011;6149;52.418;13.668;2023-01-28T12:59:23;1.37;;;0.73;;
12171;SDS011;6149;52.418;13.668;2023-01-28T13:02:00;1.80;;;0.80;;
12171;SDS011;6149;52.418;13.668;2023-01-28T13:04:44;1.33;;;0.50;;
12171;SDS011;6149;52.418;13.668;2023-01-28T13:07:25;1.30;;;0.60;;
12171;SDS011;6149;52.418;13.668;2023-01-28T13:10:01;0.83;;;0.63;;
12171;SDS011;6149;52.418;13.668;2023-01-28T13:12:32;2.17;;;1.10;;
12171;SDS011;6149;52.418;13.668;2023-01-28T13:15:02;0.97;;;0.70;;
12171;SDS011;6149;52.418;13.668;2023-01-28T13:17:31;2.83;;;0.90;;
12171;SDS011;6149;52.418;13.668;2023-01-28T13:19:58;0.77;;;0.70;;
12171;SDS011;6149;52.418;13.668;2023-01-28T13:22:34;1.43;;;0.53;;
12171;SDS011;6149;52.418;13.668;2023-01-28T13:25:17;2.03;;;0.80;;
12171;SDS011;6149;52.418;13.668;2023-01-28T13:27:52;2.20;;;0.80;;
12171;SDS011;6149;52.418;13.668;2023-01-28T13:30:24;1.57;;;0.80;;
12171;SDS011;6149;52.418;13.668;2023-01-28T13:33:00;2.07;;;0.73;;
12171;SDS011;6149;52.418;13.668;2023-01-28T13:35:30;1.87;;;0.70;;
12171;SDS011;6149;52.418;13.668;2023-01-28T13:38:09;4.23;;;1.50;;
12171;SDS011;6149;52.418;13.668;2023-01-28T13:40:51;0.90;;;0.80;;
12171;SDS011;6149;52.418;13.668;2023-01-28T13:43:27;1.93;;;1.13;;
12171;SDS011;6149;52.418;13.668;2023-01-28T13:46:04;2.43;;;1.40;;
12171;SDS011;6149;52.418;13.668;2023-01-28T13:48:34;5.17;;;2.00;;
12171;SDS011;6149;52.418;13.668;2023-01-28T13:51:14;3.20;;;2.30;;
12171;SDS011;6149;52.418;13.668;2023-01-28T13:53:52;7.33;;;3.30;;
12171;SDS011;6149;52.418;13.668;2023-01-28T13:56:27;8.10;;;4.23;;
12171;SDS011;6149;52.418;13.668;2023-01-28T14:02:15;10.03;;;5.27;;
12171;SDS011;6149;52.418;13.668;2023-01-28T14:11:30;10.47;;;5.40;;
12171;SDS011;6149;52.418;13.668;2023-01-28T14:14:41;9.07;;;4.73;;
12171;SDS011;6149;52.418;13.668;2023-01-28T14:18:00;11.67;;;4.30;;
12171;SDS011;6149;52.418;13.668;2023-01-28T14:20:30;13.80;;;5.30;;
12171;SDS011;6149;52.418;13.668;2023-01-28T14:23:06;10.10;;;4.80;;
12171;SDS011;6149;52.418;13.668;2023-01-28T14:25:47;4.87;;;2.60;;
12171;SDS011;6149;52.418;13.668;2023-01-28T14:28:44;4.60;;;2.90;;
12171;SDS011;6149;52.418;13.668;2023-01-28T14:31:25;4.00;;;2.47;;
12171;SDS011;6149;52.418;13.668;2023-01-28T14:33:59;2.43;;;1.73;;
12171;SDS011;6149;52.418;13.668;2023-01-28T14:36:39;2.47;;;1.90;;
12171;SDS011;6149;52.418;13.668;2023-01-28T14:39:11;4.13;;;2.00;;
12171;SDS011;6149;52.418;13.668;2023-01-28T14:41:47;7.30;;;2.40;;
12171;SDS011;6149;52.418;13.668;2023-01-28T14:44:26;5.37;;;3.20;;
12171;SDS011;6149;52.418;13.668;2023-01-28T14:47:00;5.00;;;3.13;;
12171;SDS011;6149;52.418;13.668;2023-01-28T14:49:58;4.77;;;3.23;;
12171;SDS011;6149;52.418;13.668;2023-01-28T14:52:59;4.33;;;2.53;;
12171;SDS011;6149;52.418;13.668;2023-01-28T14:56:03;3.03;;;2.30;;
12171;SDS011;6149;52.418;13.668;2023-01-28T14:58:43;5.30;;;2.13;;
12171;SDS011;6149;52.418;13.668;2023-01-28T15:01:19;2.20;;;2.00;;
12171;SDS011;6149;52.418;13.668;2023-01-28T15:03:49;8.03;;;2.60;;
12171;SDS011;6149;52.418;13.668;2023-01-28T15:06:20;4.73;;;2.53;;
12171;SDS011;6149;52.418;13.668;2023-01-28T15:08:51;5.23;;;2.77;;
12171;SDS011;6149;52.418;13.668;2023-01-28T15:11:31;3.23;;;2.60;;
12171;SDS011;6149;52.418;13.668;2023-01-28T15:14:12;5.30;;;2.90;;
12171;SDS011;6149;52.418;13.668;2023-01-28T15:16:46;4.27;;;2.10;;
12171;SDS011;6149;52.418;13.668;2023-01-28T15:19:24;3.57;;;2.73;;
12171;SDS011;6149;52.418;13.668;2023-01-28T15:21:56;5.50;;;2.93;;
12171;SDS011;6149;52.418;13.668;2023-01-28T15:24:27;7.33;;;2.90;;
12171;SDS011;6149;52.418;13.668;2023-01-28T15:26:54;2.60;;;2.40;;
12171;SDS011;6149;52.418;13.668;2023-01-28T15:29:30;3.20;;;1.50;;
12171;SDS011;6149;52.418;13.668;2023-01-28T15:32:00;1.97;;;1.40;;
12171;SDS011;6149;52.418;13.668;2023-01-28T15:34:29;2.67;;;1.80;;
12171;SDS011;6149;52.418;13.668;2023-01-28T15:36:57;3.13;;;1.80;;
12171;SDS011;6149;52.418;13.668;2023-01-28T15:39:27;2.67;;;2.10;;
12171;SDS011;6149;52.418;13.668;2023-01-28T15:41:55;3.40;;;2.10;;
12171;SDS011;6149;52.418;13.668;2023-01-28T15:44:29;4.53;;;2.00;;
12171;SDS011;6149;52.418;13.668;2023-01-28T15:46:59;2.87;;;2.10;;
12171;SDS011;6149;52.418;13.668;2023-01-28T15:49:30;3.17;;;1.97;;
12171;SDS011;6149;52.418;13.668;2023-01-28T15:52:02;3.83;;;2.07;;